Time;durP1;ratioP1;P1;durP2;ratioP2;P2;SDS_P1;SDS_P2;PMS_P1;PMS_P2;Temp;Humidity;BMP_temperature;BMP_pressure;BME280_temperature;BME280_humidity;BME280_pressure;Samples;Min_cycle;Max_cycle;Signal;HPM_P1;HPM_P2
2021/07/14 00:02:24;;;;;;;20.40;19.30;;;16.10;89.70;;;;;;4991157;28;20592;-69
2021/07/14 00:04:53;;;;;;;20.47;19.17;;;16.10;89.90;;;;;;4989146;28;20482;-69
2021/07/14 00:07:20;;;;;;;21.67;19.97;;;16.10;89.80;;;;;;4997392;28;20464;-69
2021/07/14 00:09:47;;;;;;;19.83;18.73;;;16.10;89.40;;;;;;4994263;28;20457;-69
2021/07/14 00:12:15;;;;;;;20.57;19.47;;;16.00;89.80;;;;;;4990635;28;20516;-69
2021/07/14 00:17:44;;;;;;;20.77;19.57;;;16.00;89.90;;;;;;4989573;28;20444;-69
2021/07/14 00:22:58;;;;;;;20.03;18.83;;;16.10;89.30;;;;;;4990971;28;20453;-69
2021/07/14 00:25:25;;;;;;;19.40;18.40;;;16.10;88.80;;;;;;4990506;28;20499;-69
2021/07/14 00:27:52;;;;;;;20.17;18.97;;;16.00;89.40;;;;;;4991550;28;21019;-69
2021/07/14 00:30:25;;;;;;;20.07;19.07;;;16.00;89.70;;;;;;4990257;28;20959;-68
2021/07/14 00:32:52;;;;;;;19.60;18.60;;;16.00;89.70;;;;;;4991429;28;20509;-69
2021/07/14 00:35:20;;;;;;;20.00;18.90;;;16.00;89.80;;;;;;4989970;28;20488;-69
2021/07/14 00:37:48;;;;;;;19.50;18.40;;;16.00;89.80;;;;;;4990635;28;20482;-69
2021/07/14 00:40:15;;;;;;;19.70;18.70;;;16.10;89.50;;;;;;4988693;28;20462;-69
2021/07/14 00:42:45;;;;;;;20.13;18.93;;;16.10;89.30;;;;;;4988845;28;20446;-69
2021/07/14 00:45:13;;;;;;;20.00;18.90;;;16.10;89.30;;;;;;4988001;28;20478;-69
2021/07/14 00:47:44;;;;;;;21.10;19.97;;;16.10;89.30;;;;;;4990819;28;20454;-69
2021/07/14 00:50:12;;;;;;;20.40;19.10;;;16.10;89.00;;;;;;4989665;28;20461;-72
2021/07/14 00:52:40;;;;;;;19.80;18.60;;;16.00;89.50;;;;;;4990403;28;20481;-69
2021/07/14 00:55:08;;;;;;;19.10;18.10;;;16.10;89.50;;;;;;4986399;28;20486;-70
2021/07/14 00:57:35;;;;;;;20.33;19.23;;;16.10;89.20;;;;;;4992449;28;20742;-69
2021/07/14 01:00:02;;;;;;;20.00;18.80;;;16.10;88.80;;;;;;4989549;28;21026;-69
2021/07/14 01:02:29;;;;;;;20.80;19.60;;;16.10;88.70;;;;;;4988184;28;20468;-68
2021/07/14 01:05:02;;;;;;;20.93;19.40;;;16.10;88.60;;;;;;4988206;28;20477;-68
2021/07/14 01:07:32;;;;;;;20.40;19.20;;;16.10;88.80;;;;;;4989541;28;20502;-69
2021/07/14 01:10:05;;;;;;;20.40;19.10;;;16.10;88.50;;;;;;4989277;28;20465;-68
2021/07/14 01:12:43;;;;;;;20.00;19.00;;;16.10;88.30;;;;;;4987506;28;20488;-69
2021/07/14 01:15:13;;;;;;;20.27;19.17;;;16.00;88.30;;;;;;4988615;28;21029;-68
2021/07/14 01:17:48;;;;;;;20.30;19.20;;;16.00;88.60;;;;;;4990767;28;20460;-69
2021/07/14 01:20:30;;;;;;;20.67;19.47;;;15.90;88.90;;;;;;4988856;28;20469;-68
2021/07/14 01:23:06;;;;;;;20.13;19.03;;;15.90;88.90;;;;;;4990091;28;20475;-69
2021/07/14 01:25:59;;;;;;;20.40;19.30;;;15.90;88.90;;;;;;4988201;28;20496;-69
2021/07/14 01:28:30;;;;;;;22.60;21.00;;;15.90;88.80;;;;;;4990056;28;20458;-69
2021/07/14 01:30:57;;;;;;;20.40;19.30;;;15.80;89.30;;;;;;4987610;28;21002;-68
2021/07/14 01:33:29;;;;;;;20.43;19.23;;;15.80;89.30;;;;;;4988988;28;20488;-68
2021/07/14 01:35:58;;;;;;;20.40;19.30;;;15.80;89.50;;;;;;4987889;28;20485;-68
2021/07/14 01:38:27;;;;;;;19.50;18.50;;;15.80;89.50;;;;;;4989437;28;20462;-68
2021/07/14 01:40:55;;;;;;;22.23;20.83;;;15.80;89.60;;;;;;4987271;28;20963;-68
2021/07/14 01:43:23;;;;;;;20.20;19.13;;;15.70;89.90;;;;;;4988897;28;20918;-68
2021/07/14 01:45:54;;;;;;;20.40;19.20;;;15.70;89.90;;;;;;4987952;28;20866;-68
2021/07/14 01:48:24;;;;;;;21.83;20.30;;;15.70;89.50;;;;;;4989508;28;20804;-68
2021/07/14 01:50:52;;;;;;;20.77;19.63;;;15.70;89.80;;;;;;4988071;28;20566;-68
2021/07/14 01:53:21;;;;;;;19.40;18.40;;;15.70;90.10;;;;;;4989789;28;20484;-68
2021/07/14 01:55:49;;;;;;;19.80;18.80;;;15.70;89.90;;;;;;4988028;28;20574;-68
2021/07/14 01:58:18;;;;;;;20.70;19.30;;;15.70;89.90;;;;;;4991383;28;20481;-68
2021/07/14 02:00:45;;;;;;;19.17;17.90;;;15.80;90.00;;;;;;4988190;28;20805;-69
2021/07/14 02:03:39;;;;;;;19.40;18.40;;;15.80;89.70;;;;;;4988464;28;20930;-69
2021/07/14 02:06:07;;;;;;;19.93;18.83;;;15.80;89.70;;;;;;4989081;28;20583;-68
2021/07/14 02:08:37;;;;;;;19.40;18.30;;;15.80;89.90;;;;;;4989096;28;20468;-69
2021/07/14 02:11:05;;;;;;;19.87;18.83;;;15.80;89.90;;;;;;4987935;28;20453;-69
2021/07/14 02:13:33;;;;;;;19.97;18.87;;;15.80;89.90;;;;;;4988282;28;20827;-69
2021/07/14 02:16:02;;;;;;;20.07;18.80;;;15.80;90.10;;;;;;4987846;28;20477;-69
2021/07/14 02:18:38;;;;;;;20.23;18.67;;;15.80;89.70;;;;;;4989128;28;20948;-69
2021/07/14 02:21:05;;;;;;;19.37;18.37;;;15.90;89.70;;;;;;4988759;28;20458;-68
2021/07/14 02:23:32;;;;;;;20.43;19.13;;;15.80;89.60;;;;;;4988756;28;20454;-68
2021/07/14 02:26:02;;;;;;;21.53;20.00;;;15.80;89.70;;;;;;4987854;28;20492;-68
2021/07/14 02:28:29;;;;;;;19.87;18.67;;;15.90;89.60;;;;;;4988648;28;20481;-68
2021/07/14 02:30:56;;;;;;;20.07;18.90;;;15.90;89.50;;;;;;4988175;28;20824;-68
2021/07/14 02:33:23;;;;;;;19.90;18.70;;;15.90;89.40;;;;;;4989149;28;20553;-68
2021/07/14 02:35:56;;;;;;;19.97;18.87;;;15.90;89.20;;;;;;4989497;28;20488;-68
2021/07/14 02:38:28;;;;;;;19.73;18.73;;;15.90;89.30;;;;;;4989170;28;20540;-69
2021/07/14 02:41:03;;;;;;;20.13;18.93;;;16.00;89.10;;;;;;4987305;28;20461;-69
2021/07/14 02:43:34;;;;;;;20.63;19.43;;;15.90;89.20;;;;;;4984249;28;20461;-68
2021/07/14 02:46:05;;;;;;;22.47;21.13;;;15.90;89.20;;;;;;4986667;28;20478;-68
2021/07/14 02:48:32;;;;;;;21.27;19.87;;;15.90;89.40;;;;;;4988811;28;20875;-68
2021/07/14 02:51:02;;;;;;;19.60;18.60;;;15.90;89.50;;;;;;4988058;28;20464;-69
2021/07/14 02:53:37;;;;;;;20.07;18.70;;;15.90;89.30;;;;;;4988102;28;20478;-68
2021/07/14 02:56:14;;;;;;;20.23;19.10;;;16.00;89.40;;;;;;4987607;28;20480;-69
2021/07/14 02:58:43;;;;;;;19.27;18.33;;;16.00;89.20;;;;;;4990184;28;20474;-68
2021/07/14 03:01:10;;;;;;;20.10;19.00;;;16.00;89.10;;;;;;4987880;28;20457;-69
2021/07/14 03:03:37;;;;;;;20.33;18.93;;;16.00;89.30;;;;;;4988865;28;20640;-69
2021/07/14 03:06:06;;;;;;;20.57;19.37;;;16.00;89.10;;;;;;4987974;28;20479;-69
2021/07/14 03:08:34;;;;;;;19.57;18.67;;;16.00;89.10;;;;;;4990465;28;20536;-69
2021/07/14 03:11:02;;;;;;;23.33;21.83;;;16.00;89.20;;;;;;4990791;28;20458;-69
2021/07/14 03:13:31;;;;;;;22.27;20.90;;;16.00;89.10;;;;;;4990357;28;20592;-69
2021/07/14 03:15:59;;;;;;;22.37;21.20;;;16.00;89.00;;;;;;4991790;28;20938;-69
2021/07/14 03:18:29;;;;;;;22.10;20.90;;;16.00;89.20;;;;;;4991833;28;20541;-69
2021/07/14 03:20:59;;;;;;;23.97;22.67;;;16.00;89.10;;;;;;4991320;28;20466;-69
2021/07/14 03:23:28;;;;;;;21.27;19.80;;;16.10;88.90;;;;;;4992216;28;21110;-69
2021/07/14 03:25:59;;;;;;;25.87;24.40;;;16.00;88.90;;;;;;4990727;28;20982;-69
2021/07/14 03:28:30;;;;;;;21.40;20.30;;;16.00;88.90;;;;;;4991293;28;20545;-69
2021/07/14 03:31:01;;;;;;;23.33;22.03;;;15.90;89.20;;;;;;4991358;28;20469;-69
2021/07/14 03:33:28;;;;;;;23.20;21.40;;;15.90;89.20;;;;;;4991515;28;20481;-69
2021/07/14 03:35:57;;;;;;;22.33;20.97;;;15.90;89.10;;;;;;4989824;28;20493;-69
2021/07/14 03:38:24;;;;;;;23.83;22.63;;;16.00;89.10;;;;;;4990492;28;20488;-69
2021/07/14 03:40:54;;;;;;;23.23;21.83;;;15.90;89.10;;;;;;4991007;28;20580;-69
2021/07/14 03:43:21;;;;;;;22.57;21.37;;;16.10;88.80;;;;;;4990911;28;20465;-69
2021/07/14 03:45:51;;;;;;;26.03;24.43;;;16.10;88.50;;;;;;4990238;28;20482;-69
2021/07/14 03:48:19;;;;;;;24.07;22.67;;;16.10;88.70;;;;;;4992199;28;20454;-69
2021/07/14 03:50:48;;;;;;;22.30;21.10;;;16.10;88.50;;;;;;4988991;28;20473;-69
2021/07/14 03:53:17;;;;;;;25.07;23.67;;;16.10;88.50;;;;;;4991010;28;20556;-69
2021/07/14 03:55:44;;;;;;;21.47;20.37;;;16.10;88.70;;;;;;4989571;28;20485;-69
2021/07/14 03:58:13;;;;;;;22.30;20.90;;;16.10;88.80;;;;;;4993980;28;20466;-69
2021/07/14 04:00:41;;;;;;;23.00;21.70;;;16.00;89.00;;;;;;4990462;28;20462;-70
2021/07/14 04:03:09;;;;;;;22.57;21.17;;;16.00;89.00;;;;;;4990618;28;20546;-69
2021/07/14 04:05:40;;;;;;;23.40;22.00;;;16.10;88.80;;;;;;4989670;28;20569;-70
2021/07/14 04:08:07;;;;;;;24.23;23.03;;;16.00;88.60;;;;;;4990246;28;20462;-69
2021/07/14 04:10:34;;;;;;;23.53;22.13;;;15.90;89.10;;;;;;4990645;28;20556;-69
2021/07/14 04:13:01;;;;;;;22.50;21.30;;;16.00;89.00;;;;;;4989029;28;20474;-69
2021/07/14 04:15:29;;;;;;;21.10;20.10;;;16.00;89.00;;;;;;4990157;28;20573;-69
2021/07/14 04:17:56;;;;;;;21.40;20.30;;;16.00;89.20;;;;;;4990479;28;20454;-69
2021/07/14 04:20:23;;;;;;;22.60;21.20;;;16.10;88.90;;;;;;4989782;28;20867;-70
2021/07/14 04:22:50;;;;;;;21.83;20.23;;;16.10;88.40;;;;;;4990509;28;20560;-69
2021/07/14 04:25:17;;;;;;;24.47;22.77;;;16.10;88.20;;;;;;4989150;28;20501;-70
2021/07/14 04:27:44;;;;;;;24.77;23.37;;;16.20;87.50;;;;;;4990271;28;20446;-70
2021/07/14 04:30:12;;;;;;;24.03;22.40;;;16.20;87.30;;;;;;4986543;28;20457;-70
2021/07/14 04:32:41;;;;;;;26.67;25.17;;;16.30;86.90;;;;;;4990609;28;20482;-69
2021/07/14 04:35:08;;;;;;;25.80;24.10;;;16.30;86.50;;;;;;4988952;28;20871;-70
2021/07/14 04:37:35;;;;;;;34.07;24.00;;;16.20;86.50;;;;;;4989772;28;20229;-69
2021/07/14 04:40:03;;;;;;;25.83;24.40;;;16.10;87.00;;;;;;4989847;28;20516;-69
2021/07/14 04:42:30;;;;;;;23.97;22.40;;;16.10;87.20;;;;;;4988836;28;20493;-69
2021/07/14 04:44:57;;;;;;;23.63;21.90;;;16.10;87.20;;;;;;4989611;28;20848;-71
2021/07/14 04:47:24;;;;;;;24.07;22.70;;;16.20;86.90;;;;;;4995896;28;20457;-69
2021/07/14 04:49:52;;;;;;;23.33;22.03;;;16.10;87.10;;;;;;4990704;28;20457;-72
2021/07/14 04:52:19;;;;;;;24.87;23.60;;;16.10;87.00;;;;;;4989812;28;20496;-70
2021/07/14 04:54:46;;;;;;;22.60;21.20;;;16.20;87.30;;;;;;4989354;28;20490;-69
2021/07/14 04:57:12;;;;;;;22.73;21.33;;;16.20;87.00;;;;;;4992918;28;20476;-69
2021/07/14 04:59:39;;;;;;;22.17;21.07;;;16.30;87.00;;;;;;4989413;28;20533;-69
2021/07/14 05:02:07;;;;;;;21.67;20.57;;;16.40;87.00;;;;;;4988947;28;20545;-70
2021/07/14 05:04:35;;;;;;;23.97;22.50;;;16.40;86.80;;;;;;4989782;28;20533;-71
2021/07/14 05:07:04;;;;;;;23.57;21.83;;;16.50;86.50;;;;;;4985860;28;20469;-69
2021/07/14 05:09:31;;;;;;;23.40;22.20;;;16.60;86.40;;;;;;4989202;28;20544;-69
2021/07/14 05:11:58;;;;;;;23.17;21.67;;;16.60;85.70;;;;;;4989835;28;20468;-69
2021/07/14 05:14:25;;;;;;;22.50;21.03;;;16.70;85.80;;;;;;4989028;28;20581;-69
2021/07/14 05:16:52;;;;;;;23.03;21.70;;;16.80;85.60;;;;;;4983065;28;20463;-69
2021/07/14 05:19:19;;;;;;;23.93;22.63;;;16.80;85.10;;;;;;4989509;28;20484;-69
2021/07/14 05:21:46;;;;;;;24.90;23.20;;;16.90;85.00;;;;;;4990265;28;21006;-70
2021/07/14 05:24:14;;;;;;;26.73;25.03;;;16.90;84.50;;;;;;4988516;28;20537;-69
2021/07/14 05:26:41;;;;;;;24.13;22.40;;;17.00;84.10;;;;;;4989366;28;20483;-70
2021/07/14 05:29:08;;;;;;;23.53;22.23;;;17.00;84.20;;;;;;4990001;28;20548;-70
2021/07/14 05:31:35;;;;;;;24.73;23.27;;;17.00;83.70;;;;;;4989459;28;20547;-70
2021/07/14 05:34:03;;;;;;;24.00;22.60;;;17.10;83.40;;;;;;4993648;28;20477;-69
2021/07/14 05:36:30;;;;;;;24.83;23.43;;;17.20;83.30;;;;;;4988603;28;20487;-69
2021/07/14 05:38:59;;;;;;;23.50;22.20;;;17.20;83.10;;;;;;4988538;28;20472;-69
2021/07/14 05:41:27;;;;;;;26.23;24.73;;;17.30;83.10;;;;;;4986369;28;20322;-70
2021/07/14 05:43:55;;;;;;;27.03;25.53;;;17.40;82.50;;;;;;4988743;28;20464;-70
2021/07/14 05:46:22;;;;;;;26.57;24.80;;;17.30;82.80;;;;;;4987368;28;20474;-69
2021/07/14 05:48:49;;;;;;;25.53;23.83;;;17.30;82.90;;;;;;4988373;28;20461;-72
2021/07/14 05:51:17;;;;;;;24.77;23.27;;;17.50;82.70;;;;;;4986267;28;20465;-72
2021/07/14 05:53:44;;;;;;;24.43;22.83;;;17.50;82.30;;;;;;4985620;28;20486;-72
2021/07/14 05:56:11;;;;;;;24.03;22.40;;;17.50;82.00;;;;;;4985253;28;20506;-71
2021/07/14 05:58:39;;;;;;;23.50;22.30;;;17.50;82.00;;;;;;4991330;28;20458;-71
2021/07/14 06:01:06;;;;;;;24.83;23.43;;;17.50;82.10;;;;;;4987547;28;20463;-71
2021/07/14 06:03:33;;;;;;;25.63;24.13;;;17.50;82.20;;;;;;4986656;28;20465;-71
2021/07/14 06:06:00;;;;;;;25.73;24.40;;;17.60;82.00;;;;;;4985919;28;20484;-71
2021/07/14 06:08:27;;;;;;;24.97;23.60;;;17.60;81.60;;;;;;4984411;28;20476;-70
2021/07/14 06:10:54;;;;;;;25.83;24.00;;;17.50;81.80;;;;;;4979826;28;20458;-70
2021/07/14 06:13:21;;;;;;;26.97;24.93;;;17.50;81.90;;;;;;4986878;28;20578;-70
2021/07/14 06:15:49;;;;;;;25.17;23.67;;;17.60;81.80;;;;;;4986926;28;21034;-70
2021/07/14 06:18:16;;;;;;;24.23;22.90;;;17.60;82.70;;;;;;4989780;28;20519;-71
2021/07/14 06:20:43;;;;;;;24.23;22.83;;;17.70;82.80;;;;;;4988531;28;20536;-70
2021/07/14 06:23:10;;;;;;;24.80;23.40;;;17.70;81.80;;;;;;4987669;28;20453;-70
2021/07/14 06:25:37;;;;;;;25.53;24.13;;;17.80;81.70;;;;;;4988642;28;20499;-70
2021/07/14 06:28:05;;;;;;;25.07;23.77;;;17.80;81.60;;;;;;4988355;28;20554;-70
2021/07/14 06:30:33;;;;;;;26.37;24.77;;;17.80;81.30;;;;;;4987922;28;20468;-70
2021/07/14 06:33:02;;;;;;;27.73;25.50;;;17.80;81.30;;;;;;4987230;28;20461;-70
2021/07/14 06:35:31;;;;;;;28.10;25.90;;;17.90;81.10;;;;;;4988767;28;20520;-70
2021/07/14 06:37:58;;;;;;;25.00;23.50;;;17.80;81.20;;;;;;4987959;28;20986;-70
2021/07/14 06:40:28;;;;;;;26.20;24.60;;;18.00;80.70;;;;;;4986208;28;20519;-70
2021/07/14 06:42:55;;;;;;;25.00;23.40;;;18.00;80.90;;;;;;4988479;28;20532;-70
2021/07/14 06:45:24;;;;;;;26.47;24.97;;;18.00;81.00;;;;;;4990690;28;20517;-70
2021/07/14 06:47:51;;;;;;;26.20;24.70;;;18.00;80.80;;;;;;4992937;28;20465;-70
2021/07/14 06:50:19;;;;;;;24.90;23.40;;;18.00;80.70;;;;;;4989550;28;20450;-69
2021/07/14 06:52:46;;;;;;;27.27;25.20;;;18.10;80.40;;;;;;4992117;28;20557;-69
2021/07/14 06:55:14;;;;;;;25.23;23.73;;;18.00;80.60;;;;;;4990563;28;20482;-69
2021/07/14 06:57:42;;;;;;;25.63;24.03;;;18.10;80.50;;;;;;4996426;28;20552;-68
2021/07/14 07:00:11;;;;;;;25.77;24.17;;;18.20;80.40;;;;;;4989740;28;20977;-69
2021/07/14 07:02:38;;;;;;;26.30;24.37;;;18.20;80.50;;;;;;4991597;28;20544;-69
2021/07/14 07:05:07;;;;;;;28.30;26.60;;;18.20;80.40;;;;;;4988733;28;20469;-68
2021/07/14 07:07:35;;;;;;;25.23;23.73;;;18.20;80.20;;;;;;4991240;28;20477;-68
2021/07/14 07:10:02;;;;;;;26.83;25.33;;;18.20;80.20;;;;;;4989595;28;20462;-68
2021/07/14 07:12:29;;;;;;;26.40;24.90;;;18.10;80.40;;;;;;4990447;28;20469;-68
2021/07/14 07:14:56;;;;;;;27.73;25.90;;;18.10;80.60;;;;;;4991940;28;20485;-69
2021/07/14 07:17:24;;;;;;;27.00;24.57;;;18.10;80.80;;;;;;4988177;28;20460;-69
2021/07/14 07:19:51;;;;;;;26.30;24.57;;;18.20;81.00;;;;;;4988658;28;21261;-68
2021/07/14 07:22:18;;;;;;;26.73;24.67;;;18.30;80.60;;;;;;4991837;28;20556;-69
2021/07/14 07:24:46;;;;;;;25.90;24.10;;;18.50;80.20;;;;;;4991122;28;20508;-68
2021/07/14 07:27:13;;;;;;;28.20;26.60;;;18.60;79.60;;;;;;4990058;28;20462;-68
2021/07/14 07:29:40;;;;;;;30.87;28.77;;;18.50;79.60;;;;;;4990550;28;20509;-66
2021/07/14 07:32:08;;;;;;;28.77;26.93;;;18.50;80.10;;;;;;4989201;28;20544;-66
2021/07/14 07:34:36;;;;;;;25.60;24.10;;;18.50;80.00;;;;;;4987384;28;20481;-67
2021/07/14 07:37:04;;;;;;;28.03;26.10;;;18.70;79.70;;;;;;4987115;28;20544;-66
2021/07/14 07:39:31;;;;;;;28.93;27.17;;;18.80;79.00;;;;;;4988805;28;20465;-66
2021/07/14 07:42:02;;;;;;;29.70;27.60;;;18.80;79.00;;;;;;4987990;28;20469;-66
2021/07/14 07:44:29;;;;;;;30.43;28.83;;;18.90;78.80;;;;;;4988597;28;20986;-67
2021/07/14 07:46:56;;;;;;;28.37;26.20;;;18.90;78.80;;;;;;4989198;28;20536;-66
2021/07/14 07:49:23;;;;;;;32.13;29.77;;;18.80;78.60;;;;;;4988462;28;20657;-66
2021/07/14 07:51:50;;;;;;;28.77;27.00;;;18.90;78.80;;;;;;4988552;28;20638;-67
2021/07/14 07:54:17;;;;;;;29.87;28.10;;;18.90;78.40;;;;;;4988691;28;20469;-66
2021/07/14 07:56:44;;;;;;;26.53;24.93;;;18.90;78.40;;;;;;4991003;28;20488;-66
2021/07/14 07:59:13;;;;;;;30.60;28.03;;;18.90;78.60;;;;;;4991288;28;20466;-66
2021/07/14 08:01:39;;;;;;;29.20;27.20;;;18.90;78.80;;;;;;4989128;28;20545;-66
2021/07/14 08:04:07;;;;;;;30.57;28.53;;;18.90;78.80;;;;;;4987471;28;20465;-66
2021/07/14 08:06:34;;;;;;;32.70;30.60;;;19.00;78.50;;;;;;4985532;28;20517;-66
2021/07/14 08:09:01;;;;;;;28.73;26.43;;;19.10;78.40;;;;;;4989218;28;20468;-67
2021/07/14 08:11:28;;;;;;;30.87;27.90;;;19.10;77.60;;;;;;4989841;28;20494;-66
2021/07/14 08:13:56;;;;;;;30.33;28.30;;;19.20;77.70;;;;;;4987965;28;20920;-66
2021/07/14 08:16:24;;;;;;;29.27;26.97;;;19.20;77.50;;;;;;4988057;28;20485;-67
2021/07/14 08:18:51;;;;;;;30.73;27.47;;;19.10;77.80;;;;;;4988120;28;20545;-66
2021/07/14 08:21:18;;;;;;;32.50;29.90;;;19.10;77.60;;;;;;4989993;28;20458;-66
2021/07/14 08:23:45;;;;;;;29.47;27.60;;;19.10;77.90;;;;;;4988933;28;20462;-66
2021/07/14 08:26:13;;;;;;;28.90;26.90;;;19.10;77.90;;;;;;4988998;28;20481;-66
2021/07/14 08:28:40;;;;;;;37.77;28.27;;;19.10;78.00;;;;;;4989881;28;21049;-66
2021/07/14 08:31:07;;;;;;;31.63;28.33;;;19.10;78.30;;;;;;4989319;28;20464;-66
2021/07/14 08:33:35;;;;;;;28.33;26.73;;;19.10;78.90;;;;;;4989275;28;20816;-67
2021/07/14 08:36:02;;;;;;;29.00;27.10;;;19.10;79.20;;;;;;4986023;28;20473;-67
2021/07/14 08:38:29;;;;;;;29.27;27.60;;;19.20;78.90;;;;;;4988695;28;20457;-67
2021/07/14 08:40:58;;;;;;;27.73;26.30;;;19.30;78.30;;;;;;4988724;28;20589;-67
2021/07/14 08:43:28;;;;;;;29.53;27.63;;;19.30;77.60;;;;;;4989206;28;20553;-67
2021/07/14 08:45:58;;;;;;;28.10;26.30;;;19.30;77.80;;;;;;4988667;28;20481;-67
2021/07/14 08:48:25;;;;;;;28.90;27.30;;;19.30;77.50;;;;;;4987008;28;20458;-67
2021/07/14 08:50:58;;;;;;;29.13;27.47;;;19.40;77.50;;;;;;4984881;28;20967;-67
2021/07/14 08:53:26;;;;;;;27.07;25.57;;;19.40;77.70;;;;;;4989518;28;20466;-67
2021/07/14 08:55:54;;;;;;;27.30;25.53;;;19.40;77.60;;;;;;4986810;28;20576;-67
2021/07/14 08:58:23;;;;;;;27.10;25.53;;;19.40;77.50;;;;;;4992486;28;20481;-67
2021/07/14 09:00:53;;;;;;;28.53;26.83;;;19.60;77.60;;;;;;4988134;28;20468;-67
2021/07/14 09:03:20;;;;;;;29.17;27.57;;;19.60;77.40;;;;;;4988680;28;20541;-67
2021/07/14 09:05:47;;;;;;;27.43;25.97;;;19.70;77.10;;;;;;4985613;28;20489;-67
2021/07/14 09:08:16;;;;;;;27.00;25.60;;;19.70;77.30;;;;;;4988575;28;20528;-67
2021/07/14 09:10:45;;;;;;;27.53;25.93;;;19.90;78.30;;;;;;4988257;28;20485;-67
2021/07/14 09:13:13;;;;;;;29.70;28.10;;;20.00;76.70;;;;;;4988766;28;20478;-67
2021/07/14 09:15:42;;;;;;;28.30;26.80;;;20.10;76.30;;;;;;4988223;28;20485;-67
2021/07/14 09:18:12;;;;;;;27.90;26.07;;;20.30;76.00;;;;;;4989269;28;20461;-67
2021/07/14 09:20:39;;;;;;;27.47;25.87;;;20.30;75.40;;;;;;4988450;28;20617;-67
2021/07/14 09:23:08;;;;;;;29.43;27.83;;;20.50;75.00;;;;;;4988807;28;20466;-67
2021/07/14 09:25:42;;;;;;;28.40;26.60;;;20.50;74.50;;;;;;4987850;28;20481;-67
2021/07/14 09:28:09;;;;;;;29.10;27.20;;;20.70;73.50;;;;;;4989220;28;21051;-67
2021/07/14 09:30:37;;;;;;;29.63;27.53;;;20.80;74.40;;;;;;4988845;28;20461;-67
2021/07/14 09:33:07;;;;;;;29.10;27.40;;;21.00;73.80;;;;;;4988122;28;20461;-67
2021/07/14 09:35:37;;;;;;;28.17;26.27;;;21.20;73.20;;;;;;4984699;28;20478;-67
2021/07/14 09:38:07;;;;;;;28.53;26.93;;;21.20;72.00;;;;;;4981630;28;20454;-67
2021/07/14 09:40:37;;;;;;;28.20;26.60;;;21.30;72.00;;;;;;4986594;28;20465;-68
2021/07/14 09:43:10;;;;;;;31.23;29.40;;;21.50;71.00;;;;;;4988404;28;20464;-68
2021/07/14 09:45:39;;;;;;;27.47;25.97;;;21.40;70.80;;;;;;4987465;28;20481;-68
2021/07/14 09:48:07;;;;;;;27.70;26.17;;;21.50;70.90;;;;;;4989509;28;20557;-68
2021/07/14 09:50:36;;;;;;;32.23;30.63;;;21.60;69.40;;;;;;4988023;28;20496;-68
2021/07/14 09:53:05;;;;;;;29.23;27.63;;;21.60;69.40;;;;;;4987596;28;20561;-68
2021/07/14 09:55:33;;;;;;;28.43;26.70;;;21.70;70.10;;;;;;4987524;28;20489;-68
2021/07/14 09:58:13;;;;;;;28.80;27.00;;;21.80;68.90;;;;;;4990843;28;20549;-68
2021/07/14 10:00:48;;;;;;;28.23;26.33;;;21.90;68.80;;;;;;4986590;28;20468;-68
2021/07/14 10:03:21;;;;;;;31.10;28.90;;;21.90;68.90;;;;;;4984517;28;20831;-68
2021/07/14 10:05:48;;;;;;;30.90;28.97;;;22.00;68.90;;;;;;4986613;28;20500;-68
2021/07/14 10:08:21;;;;;;;26.80;25.30;;;22.20;68.50;;;;;;4987666;28;20480;-68
2021/07/14 10:10:49;;;;;;;26.97;25.37;;;22.30;67.30;;;;;;4985606;28;20513;-68
2021/07/14 10:13:21;;;;;;;28.53;26.73;;;22.30;67.00;;;;;;4987900;28;20876;-68
2021/07/14 10:16:00;;;;;;;29.13;27.13;;;22.40;67.70;;;;;;4987937;28;20481;-68
2021/07/14 10:18:27;;;;;;;29.07;27.40;;;22.60;67.00;;;;;;4988589;28;20827;-68
2021/07/14 10:20:54;;;;;;;32.20;30.27;;;22.80;66.50;;;;;;4987146;28;20971;-68
2021/07/14 10:23:22;;;;;;;30.23;28.43;;;23.00;66.40;;;;;;4987838;28;20549;-68
2021/07/14 10:25:51;;;;;;;28.47;26.80;;;23.30;65.60;;;;;;4985572;28;20490;-68
2021/07/14 10:28:24;;;;;;;29.00;27.40;;;23.50;65.10;;;;;;4988477;28;20548;-68
2021/07/14 10:30:53;;;;;;;32.33;30.33;;;23.70;63.70;;;;;;4986855;28;20464;-68
2021/07/14 10:33:21;;;;;;;30.70;28.90;;;23.80;63.90;;;;;;4988310;28;21020;-68
2021/07/14 10:35:51;;;;;;;28.60;26.90;;;23.90;63.50;;;;;;4986027;28;20898;-69
2021/07/14 10:38:20;;;;;;;30.93;28.80;;;24.20;63.40;;;;;;4986487;28;20949;-69
2021/07/14 10:40:48;;;;;;;29.70;27.90;;;24.40;62.40;;;;;;4985345;28;20963;-69
2021/07/14 10:43:17;;;;;;;27.87;26.27;;;24.50;61.90;;;;;;4987135;28;20461;-69
2021/07/14 10:45:47;;;;;;;27.27;25.80;;;24.60;61.30;;;;;;4983312;28;20473;-69
2021/07/14 10:48:16;;;;;;;30.93;28.90;;;24.60;60.20;;;;;;4987541;28;20458;-68
2021/07/14 10:50:43;;;;;;;29.27;27.63;;;24.60;60.00;;;;;;4985429;28;20465;-68
2021/07/14 10:53:13;;;;;;;27.00;25.50;;;24.60;60.10;;;;;;4987113;28;20516;-69
2021/07/14 10:55:41;;;;;;;27.93;26.10;;;24.70;60.30;;;;;;4986030;28;20867;-69
2021/07/14 10:58:11;;;;;;;27.93;26.33;;;24.80;60.90;;;;;;4986949;28;20495;-68
2021/07/14 11:00:39;;;;;;;29.77;27.90;;;24.90;59.60;;;;;;4984930;28;20541;-69
2021/07/14 11:03:07;;;;;;;29.63;27.83;;;24.90;60.00;;;;;;4985910;28;20477;-69
2021/07/14 11:05:44;;;;;;;29.63;27.93;;;24.90;60.10;;;;;;4985423;28;20859;-69
2021/07/14 11:08:11;;;;;;;27.23;25.73;;;24.90;59.80;;;;;;4986693;28;21069;-69
2021/07/14 11:10:39;;;;;;;27.80;26.27;;;25.10;60.00;;;;;;4985598;28;20489;-70
2021/07/14 11:13:25;;;;;;;29.10;27.40;;;25.30;59.50;;;;;;4988394;28;20450;-68
2021/07/14 11:15:52;;;;;;;29.40;27.70;;;25.40;58.50;;;;;;4986254;28;20512;-67
2021/07/14 11:18:40;;;;;;;27.90;26.20;;;24.80;58.00;;;;;;4987961;28;20483;-68
2021/07/14 11:21:08;;;;;;;27.40;25.90;;;24.30;59.00;;;;;;4986404;28;20454;-68
2021/07/14 11:23:35;;;;;;;26.77;25.27;;;24.40;59.50;;;;;;4987799;28;20457;-68
2021/07/14 11:26:04;;;;;;;28.40;26.80;;;24.70;57.80;;;;;;4985894;28;20480;-68
2021/07/14 11:28:33;;;;;;;27.80;26.27;;;24.20;57.20;;;;;;4987650;28;20970;-67
2021/07/14 11:31:09;;;;;;;28.23;26.53;;;23.50;58.60;;;;;;4991322;28;20461;-67
2021/07/14 11:33:38;;;;;;;28.23;26.63;;;23.00;60.10;;;;;;4984277;28;20537;-68
2021/07/14 11:36:09;;;;;;;28.50;26.50;;;23.20;60.60;;;;;;4990227;28;20520;-68
2021/07/14 11:38:45;;;;;;;25.80;24.40;;;23.70;60.10;;;;;;4991278;28;20562;-68
2021/07/14 11:41:21;;;;;;;26.80;25.40;;;24.20;57.00;;;;;;4988832;28;20461;-68
2021/07/14 11:43:49;;;;;;;26.73;25.23;;;24.40;57.20;;;;;;4989597;28;20463;-69
2021/07/14 11:46:18;;;;;;;26.77;25.30;;;24.70;57.20;;;;;;4985998;28;20473;-69
2021/07/14 11:48:50;;;;;;;27.40;26.00;;;25.00;57.10;;;;;;4989985;28;20984;-69
2021/07/14 11:51:25;;;;;;;28.47;26.70;;;24.80;56.10;;;;;;4989879;28;20469;-69
2021/07/14 11:53:54;;;;;;;27.33;25.60;;;24.60;56.70;;;;;;4989548;28;20465;-69
2021/07/14 11:56:37;;;;;;;26.33;24.83;;;24.60;57.10;;;;;;4986641;28;20488;-69
2021/07/14 11:59:10;;;;;;;29.23;27.63;;;24.60;56.60;;;;;;4985326;28;20468;-69
2021/07/14 12:02:05;;;;;;;27.17;25.73;;;24.70;56.70;;;;;;4988447;28;20449;-71
2021/07/14 12:04:38;;;;;;;29.37;27.77;;;24.90;56.00;;;;;;4988151;28;20831;-69
2021/07/14 12:07:11;;;;;;;29.30;27.60;;;24.90;56.40;;;;;;4988687;28;20457;-71
2021/07/14 12:09:43;;;;;;;29.00;27.40;;;24.80;56.80;;;;;;4987361;28;21173;-69
2021/07/14 12:12:16;;;;;;;27.10;25.60;;;25.00;56.60;;;;;;4990183;28;20468;-69
2021/07/14 12:14:45;;;;;;;25.90;24.50;;;25.20;56.20;;;;;;4988841;28;21145;-69
2021/07/14 12:17:14;;;;;;;28.00;26.50;;;25.20;54.80;;;;;;4989918;28;20473;-69
2021/07/14 12:19:42;;;;;;;28.07;26.47;;;24.90;55.60;;;;;;4989166;28;20524;-69
2021/07/14 12:22:13;;;;;;;30.10;28.40;;;25.00;55.00;;;;;;4989742;28;20462;-69
2021/07/14 12:24:43;;;;;;;27.93;26.40;;;25.20;55.40;;;;;;4990473;28;20501;-68
2021/07/14 12:27:21;;;;;;;26.70;25.20;;;25.40;55.50;;;;;;4989489;28;20461;-68
2021/07/14 12:29:57;;;;;;;26.73;25.33;;;25.50;54.90;;;;;;4989455;28;20474;-70
2021/07/14 12:32:35;;;;;;;28.70;27.10;;;25.70;54.10;;;;;;4986055;28;20988;-71
2021/07/14 12:35:05;;;;;;;26.83;25.43;;;25.80;54.20;;;;;;4983948;28;21054;-74
2021/07/14 12:37:40;;;;;;;28.43;26.73;;;25.90;53.70;;;;;;4985217;28;20458;-69
2021/07/14 12:40:09;;;;;;;27.40;25.90;;;26.00;55.30;;;;;;4987216;28;20464;-71
2021/07/14 12:42:36;;;;;;;30.70;29.00;;;26.10;54.30;;;;;;4984289;28;20544;-70
2021/07/14 12:45:03;;;;;;;28.23;26.63;;;26.00;53.20;;;;;;4989750;28;20484;-70